Alexander Maersk — OZRC2 — position and weather

sailwx.info

Track history (hours):
 
Tides and Currents Weather Stations Pressure Air Temp Water Temp Dewpoint Dewpoint Depression Visibility Wind Speed Wind Dir Waves Ship Positions

Alexander Maersk

Last reported at 2016-Jul-27 22:33 UTC. Time now 2016-Jul-28 04:47 UTC.
Position N 33°38' E 012°11'.

Length 155 m; draft 6.1 m.

Type: Cargo ship. MMSI: 219470000.

Date/timePositionNaut miles runAvg speedWind from/ knotsBaromVisibWave heightAir tempDewpointWater temp
2016-Jul-27 22:33N 33°38' E 012°11'31 9.7
2016-Jul-27 19:19N 33°26' E 012°46'7 9.8
2016-Jul-27 18:34N 33°23' E 012°55'10 9.7
2016-Jul-27 17:33N 33°19' E 013°05'  
2016-Jul-23 14:33N 35°48' E 014°35'2 2.4
2016-Jul-23 13:31N 35°49' E 014°32'0 0.0
2016-Jul-23 12:13N 35°49' E 014°32'0 0.0
2016-Jul-23 11:28N 35°49' E 014°32'0 0.0
2016-Jul-23 10:31N 35°49' E 014°32'0 0.0
2016-Jul-23 09:31N 35°49' E 014°32'0 0.0
2016-Jul-23 08:28N 35°49' E 014°32'0 0.0
2016-Jul-23 07:31N 35°49' E 014°32'0 0.0
2016-Jul-23 06:31N 35°49' E 014°32'0 0.0
2016-Jul-23 04:31N 35°49' E 014°32'0 0.0
2016-Jul-23 03:10N 35°49' E 014°32'0 0.0
2016-Jul-23 02:28N 35°49' E 014°32'0 0.0
2016-Jul-23 01:07N 35°49' E 014°32'0 0.0
2016-Jul-23 00:28N 35°49' E 014°32'0 0.0
2016-Jul-22 23:31N 35°49' E 014°32'0 0.0
2016-Jul-22 22:28N 35°49' E 014°32'0 0.0
2016-Jul-22 21:31N 35°49' E 014°32'0 0.0
2016-Jul-22 20:31N 35°49' E 014°32'0 0.0
2016-Jul-22 19:31N 35°49' E 014°32'0 0.0
2016-Jul-22 18:31N 35°49' E 014°32'0 0.0
2016-Jul-22 17:31N 35°49' E 014°32'0 0.0
2016-Jul-22 16:31N 35°49' E 014°32'0 0.0
2016-Jul-22 15:04N 35°49' E 014°32'0 0.0
2016-Jul-22 14:31N 35°49' E 014°32'0 0.0
2016-Jul-22 12:16N 35°49' E 014°32'0 0.0
2016-Jul-22 11:31N 35°49' E 014°32'0 0.0
2016-Jul-22 10:28N 35°49' E 014°32'0 0.0
2016-Jul-22 09:28N 35°49' E 014°32'7 1.4
2016-Jul-22 04:32N 35°51' E 014°40'0 0.0
2016-Jul-22 03:08N 35°51' E 014°40'0 0.0
2016-Jul-22 02:32N 35°51' E 014°41'0 0.0
2016-Jul-22 01:23N 35°51' E 014°41'0 0.0
2016-Jul-21 22:32N 35°51' E 014°41'0 0.0
2016-Jul-21 21:32N 35°51' E 014°41'0 0.0
2016-Jul-21 20:32N 35°51' E 014°41'0 0.0
2016-Jul-21 19:29N 35°51' E 014°41'0 0.0
2016-Jul-21 18:32N 35°51' E 014°41'0 0.0
2016-Jul-21 17:32N 35°51' E 014°41'0 0.0
2016-Jul-21 16:29N 35°51' E 014°41'0 0.1
2016-Jul-21 15:32N 35°51' E 014°41'0 0.1
2016-Jul-21 14:32N 35°51' E 014°40'0 0.1
2016-Jul-21 13:32N 35°51' E 014°40'0 0.0
2016-Jul-21 12:26N 35°51' E 014°40'0 0.0
2016-Jul-21 11:32N 35°51' E 014°40'0 0.0
2016-Jul-21 10:20N 35°51' E 014°40'0 0.0
2016-Jul-21 09:32N 35°51' E 014°40'0 0.0
2016-Jul-21 08:32N 35°51' E 014°40'0 0.0
2016-Jul-21 07:32N 35°51' E 014°40'0 0.0
2016-Jul-21 06:29N 35°51' E 014°40'0 0.0
2016-Jul-21 05:32N 35°51' E 014°40'0 0.0
2016-Jul-21 04:32N 35°51' E 014°40'0 0.0
2016-Jul-21 03:32N 35°51' E 014°40'0 0.0
2016-Jul-21 02:32N 35°51' E 014°40'2 2.3
2016-Jul-21 01:34N 35°49' E 014°40'8 8.2
2016-Jul-21 00:33N 35°43' E 014°34'21 8.9
2016-Jul-20 22:11N 35°36' E 014°09'6 8.9
2016-Jul-20 21:28N 35°33' E 014°02'10 8.9
2016-Jul-20 20:22N 35°28' E 013°52'8 8.8
2016-Jul-20 19:28N 35°24' E 013°44'8 8.9
2016-Jul-20 18:33N 35°20' E 013°35'9 9.2
2016-Jul-20 17:31N 35°17' E 013°24'9 9.2
2016-Jul-20 16:33N 35°14' E 013°14'9 9.1
2016-Jul-20 15:33N 35°10' E 013°04'9 8.8
2016-Jul-20 14:33N 35°06' E 012°54'9 8.6
2016-Jul-20 13:33N 35°02' E 012°45'8 8.3
2016-Jul-20 12:33N 34°56' E 012°38'92 4.2
2016-Jul-19 14:33N 34°44' E 010°46'  
Track history (hours):
 
Tides and Currents Weather Stations Pressure Air Temp Water Temp Dewpoint Dewpoint Depression Visibility Wind Speed Wind Dir Waves Ship Positions

Alexander Maersk

Last reported at 2016-Jul-27 22:33 UTC. Time now 2016-Jul-28 04:47 UTC.
Position N 33°38' E 012°11'.

Length 155 m; draft 6.1 m.

Type: Cargo ship. MMSI: 219470000.

Date/timePositionNaut miles runAvg speedWind from/ knotsBaromVisibWave heightAir tempDewpointWater temp
2016-Jul-27 22:33N 33°38' E 012°11'31 9.7
2016-Jul-27 19:19N 33°26' E 012°46'7 9.8
2016-Jul-27 18:34N 33°23' E 012°55'10 9.7
2016-Jul-27 17:33N 33°19' E 013°05'  
2016-Jul-23 14:33N 35°48' E 014°35'2 2.4
2016-Jul-23 13:31N 35°49' E 014°32'0 0.0
2016-Jul-23 12:13N 35°49' E 014°32'0 0.0
2016-Jul-23 11:28N 35°49' E 014°32'0 0.0
2016-Jul-23 10:31N 35°49' E 014°32'0 0.0
2016-Jul-23 09:31N 35°49' E 014°32'0 0.0
2016-Jul-23 08:28N 35°49' E 014°32'0 0.0
2016-Jul-23 07:31N 35°49' E 014°32'0 0.0
2016-Jul-23 06:31N 35°49' E 014°32'0 0.0
2016-Jul-23 04:31N 35°49' E 014°32'0 0.0
2016-Jul-23 03:10N 35°49' E 014°32'0 0.0
2016-Jul-23 02:28N 35°49' E 014°32'0 0.0
2016-Jul-23 01:07N 35°49' E 014°32'0 0.0
2016-Jul-23 00:28N 35°49' E 014°32'0 0.0
2016-Jul-22 23:31N 35°49' E 014°32'0 0.0
2016-Jul-22 22:28N 35°49' E 014°32'0 0.0
2016-Jul-22 21:31N 35°49' E 014°32'0 0.0
2016-Jul-22 20:31N 35°49' E 014°32'0 0.0
2016-Jul-22 19:31N 35°49' E 014°32'0 0.0
2016-Jul-22 18:31N 35°49' E 014°32'0 0.0
2016-Jul-22 17:31N 35°49' E 014°32'0 0.0
2016-Jul-22 16:31N 35°49' E 014°32'0 0.0
2016-Jul-22 15:04N 35°49' E 014°32'0 0.0
2016-Jul-22 14:31N 35°49' E 014°32'0 0.0
2016-Jul-22 12:16N 35°49' E 014°32'0 0.0
2016-Jul-22 11:31N 35°49' E 014°32'0 0.0
2016-Jul-22 10:28N 35°49' E 014°32'0 0.0
2016-Jul-22 09:28N 35°49' E 014°32'7 1.4
2016-Jul-22 04:32N 35°51' E 014°40'0 0.0
2016-Jul-22 03:08N 35°51' E 014°40'0 0.0
2016-Jul-22 02:32N 35°51' E 014°41'0 0.0
2016-Jul-22 01:23N 35°51' E 014°41'0 0.0
2016-Jul-21 22:32N 35°51' E 014°41'0 0.0
2016-Jul-21 21:32N 35°51' E 014°41'0 0.0
2016-Jul-21 20:32N 35°51' E 014°41'0 0.0
2016-Jul-21 19:29N 35°51' E 014°41'0 0.0
2016-Jul-21 18:32N 35°51' E 014°41'0 0.0
2016-Jul-21 17:32N 35°51' E 014°41'0 0.0
2016-Jul-21 16:29N 35°51' E 014°41'0 0.1
2016-Jul-21 15:32N 35°51' E 014°41'0 0.1
2016-Jul-21 14:32N 35°51' E 014°40'0 0.1
2016-Jul-21 13:32N 35°51' E 014°40'0 0.0
2016-Jul-21 12:26N 35°51' E 014°40'0 0.0
2016-Jul-21 11:32N 35°51' E 014°40'0 0.0
2016-Jul-21 10:20N 35°51' E 014°40'0 0.0
2016-Jul-21 09:32N 35°51' E 014°40'0 0.0
2016-Jul-21 08:32N 35°51' E 014°40'0 0.0
2016-Jul-21 07:32N 35°51' E 014°40'0 0.0
2016-Jul-21 06:29N 35°51' E 014°40'0 0.0
2016-Jul-21 05:32N 35°51' E 014°40'0 0.0
2016-Jul-21 04:32N 35°51' E 014°40'0 0.0
2016-Jul-21 03:32N 35°51' E 014°40'0 0.0
2016-Jul-21 02:32N 35°51' E 014°40'2 2.3
2016-Jul-21 01:34N 35°49' E 014°40'8 8.2
2016-Jul-21 00:33N 35°43' E 014°34'21 8.9
2016-Jul-20 22:11N 35°36' E 014°09'6 8.9
2016-Jul-20 21:28N 35°33' E 014°02'10 8.9
2016-Jul-20 20:22N 35°28' E 013°52'8 8.8
2016-Jul-20 19:28N 35°24' E 013°44'8 8.9
2016-Jul-20 18:33N 35°20' E 013°35'9 9.2
2016-Jul-20 17:31N 35°17' E 013°24'9 9.2
2016-Jul-20 16:33N 35°14' E 013°14'9 9.1
2016-Jul-20 15:33N 35°10' E 013°04'9 8.8
2016-Jul-20 14:33N 35°06' E 012°54'9 8.6
2016-Jul-20 13:33N 35°02' E 012°45'8 8.3
2016-Jul-20 12:33N 34°56' E 012°38'92 4.2
2016-Jul-19 14:33N 34°44' E 010°46'  

Dump ship's entire track history